createdAt,value
2022-08-01T00:03:08.951Z,100244.43
2022-08-01T00:06:05.944Z,100244.48
2022-08-01T00:09:02.835Z,100235.90
2022-08-01T00:12:00.251Z,100240.66
2022-08-01T00:14:57.930Z,100243.28
2022-08-01T00:17:53.973Z,100246.97
2022-08-01T00:20:52.435Z,100252.36
2022-08-01T00:23:50.245Z,100250.43
2022-08-01T00:26:46.982Z,100251.74
2022-08-01T00:30:12.592Z,100252.31
2022-08-01T00:33:00.945Z,100254.86
2022-08-01T00:35:57.806Z,100256.84
2022-08-01T00:38:54.929Z,100252.25
2022-08-01T00:41:59.736Z,100257.35
2022-08-01T00:44:56.881Z,100255.14
2022-08-01T00:47:55.127Z,100253.65
2022-08-01T00:50:52.758Z,100254.35
2022-08-01T00:53:52.495Z,100252.53
2022-08-01T00:56:50.361Z,100249.52
2022-08-01T00:59:47.833Z,100253.84
2022-08-01T01:02:45.249Z,100251.09
2022-08-01T01:05:42.995Z,100249.41
2022-08-01T01:08:39.941Z,100251.85
2022-08-01T01:11:35.925Z,100257.60
2022-08-01T01:14:31.887Z,100257.14
2022-08-01T01:17:49.394Z,100260.25
2022-08-01T01:20:48.143Z,100259.52
2022-08-01T01:23:47.901Z,100259.13
2022-08-01T01:26:44.012Z,100259.29
2022-08-01T01:30:00.558Z,100251.81
2022-08-01T01:32:58.022Z,100251.49
2022-08-01T01:35:55.922Z,100248.02
2022-08-01T01:38:52.717Z,100244.92
2022-08-01T01:41:48.893Z,100250.21
2022-08-01T01:44:45.984Z,100246.09
2022-08-01T01:47:45.830Z,100241.77
2022-08-01T01:50:42.915Z,100243.65
2022-08-01T01:53:39.873Z,100244.33
2022-08-01T01:59:33.872Z,100253.25
2022-08-01T02:02:30.778Z,100250.95
2022-08-01T02:05:26.760Z,100252.52
2022-08-01T02:08:24.644Z,100251.98
2022-08-01T02:11:20.765Z,100255.60
2022-08-01T02:14:16.804Z,100255.36
2022-08-01T02:17:14.422Z,100254.50
2022-08-01T02:20:11.781Z,100261.24
2022-08-01T02:23:08.715Z,100260.04
2022-08-01T02:26:11.020Z,100257.59
2022-08-01T02:29:09.015Z,100257.75
2022-08-01T02:32:06.141Z,100251.92
2022-08-01T02:35:03.973Z,100252.33
2022-08-01T02:38:00.853Z,100261.25
2022-08-01T02:40:59.037Z,100261.35
2022-08-01T02:43:56.842Z,100265.70
2022-08-01T02:46:52.895Z,100269.20
2022-08-01T02:49:53.622Z,100263.66
2022-08-01T02:52:52.006Z,100267.73
2022-08-01T02:55:48.885Z,100261.10
2022-08-01T02:58:46.470Z,100262.61
2022-08-01T03:01:44.040Z,100268.99
2022-08-01T03:04:42.016Z,100274.19
2022-08-01T03:07:40.560Z,100274.52
2022-08-01T03:10:37.885Z,100275.23
2022-08-01T03:13:34.716Z,100269.04
2022-08-01T03:16:33.056Z,100273.70
2022-08-01T03:19:29.797Z,100268.20
2022-08-01T03:22:27.253Z,100270.10
2022-08-01T03:25:25.134Z,100265.48
2022-08-01T03:28:22.725Z,100269.98
2022-08-01T03:31:25.870Z,100269.21
2022-08-01T03:34:23.158Z,100273.38
2022-08-01T03:37:20.800Z,100270.70
2022-08-01T03:40:17.947Z,100275.50
2022-08-01T03:43:19.022Z,100277.75
2022-08-01T03:46:16.882Z,100273.79
2022-08-01T03:49:12.865Z,100270.31
2022-08-01T03:52:09.905Z,100271.02
2022-08-01T03:55:06.367Z,100274.56
2022-08-01T03:58:07.156Z,100275.96
2022-08-01T04:01:06.858Z,100276.13
2022-08-01T04:04:13.103Z,100276.80
2022-08-01T04:07:10.644Z,100279.02
2022-08-01T04:10:08.667Z,100281.73
2022-08-01T04:13:05.668Z,100282.05
2022-08-01T04:16:02.706Z,100291.16
2022-08-01T04:18:59.674Z,100288.02
2022-08-01T04:21:56.885Z,100290.21
2022-08-01T04:24:56.693Z,100292.66
2022-08-01T04:27:54.668Z,100290.00
2022-08-01T04:31:02.611Z,100288.42
2022-08-01T04:33:59.704Z,100289.44
2022-08-01T04:36:55.946Z,100288.52
2022-08-01T04:39:52.947Z,100287.17
2022-08-01T04:42:50.265Z,100289.27
2022-08-01T04:45:46.732Z,100292.45
2022-08-01T04:48:43.776Z,100293.15
2022-08-01T04:51:40.654Z,100290.45
2022-08-01T04:54:38.175Z,100291.02
2022-08-01T04:57:35.746Z,100295.39
2022-08-01T05:00:32.916Z,100297.52
2022-08-01T05:03:29.706Z,100296.95
2022-08-01T05:06:26.744Z,100298.58
2022-08-01T05:09:22.571Z,100304.34
2022-08-01T05:12:19.653Z,100308.88
2022-08-01T05:15:15.875Z,100304.20
2022-08-01T05:18:11.735Z,100305.50
2022-08-01T05:21:08.827Z,100305.18
2022-08-01T05:24:05.776Z,100302.08
2022-08-01T05:27:03.406Z,100298.70
2022-08-01T05:29:59.687Z,100301.93
2022-08-01T05:32:55.933Z,100301.55
2022-08-01T05:35:53.672Z,100302.12
2022-08-01T05:38:50.754Z,100300.63
2022-08-01T05:41:46.675Z,100302.55
2022-08-01T05:44:42.472Z,100303.83
2022-08-01T05:47:43.029Z,100308.36
2022-08-01T05:50:40.751Z,100302.67
2022-08-01T05:53:37.657Z,100293.82
2022-08-01T05:56:34.675Z,100303.14
2022-08-01T05:59:31.663Z,100305.52
2022-08-01T06:02:27.860Z,100309.17
2022-08-01T06:05:18.659Z,100309.38
2022-08-01T06:08:15.705Z,100306.46
2022-08-01T06:11:09.608Z,100309.29
2022-08-01T06:14:11.673Z,100308.28
2022-08-01T06:17:08.548Z,100309.91
2022-08-01T06:19:57.458Z,100310.39
2022-08-01T06:22:53.533Z,100309.10
2022-08-01T06:25:50.604Z,100310.73
2022-08-01T06:28:56.528Z,100314.25
2022-08-01T06:31:42.673Z,100313.08
2022-08-01T06:34:35.705Z,100312.31
2022-08-01T06:37:25.711Z,100314.34
2022-08-01T06:40:22.612Z,100320.66
2022-08-01T06:43:20.359Z,100315.59
2022-08-01T06:46:17.675Z,100313.56
2022-08-01T06:49:14.640Z,100307.69
2022-08-01T06:52:11.517Z,100315.45
2022-08-01T06:55:08.439Z,100310.17
2022-08-01T06:58:06.807Z,100309.48
2022-08-01T07:01:03.670Z,100311.98
2022-08-01T07:04:02.725Z,100310.33
2022-08-01T07:06:58.813Z,100308.20
2022-08-01T07:12:17.457Z,100310.35
2022-08-01T07:15:14.525Z,100303.80
2022-08-01T07:18:10.675Z,100306.06
2022-08-01T07:21:03.179Z,100300.85
2022-08-01T07:24:54.793Z,100303.65
2022-08-01T07:27:51.415Z,100306.05
2022-08-01T07:30:48.861Z,100293.88
2022-08-01T07:33:47.676Z,100299.88
2022-08-01T07:36:35.458Z,100297.61
2022-08-01T07:39:28.603Z,100296.23
2022-08-01T07:42:15.461Z,100301.23
2022-08-01T07:45:13.580Z,100304.63
2022-08-01T07:48:00.545Z,100303.29
2022-08-01T07:50:57.566Z,100305.88
2022-08-01T07:53:54.366Z,100298.80
2022-08-01T07:56:51.286Z,100299.02
2022-08-01T07:59:48.309Z,100296.14
2022-08-01T08:02:45.582Z,100299.48
2022-08-01T08:05:59.915Z,100295.04
2022-08-01T08:08:57.300Z,100302.00
2022-08-01T08:11:54.447Z,100301.15
2022-08-01T08:14:51.439Z,100298.30
2022-08-01T08:17:55.033Z,100302.77
2022-08-01T08:20:51.631Z,100300.27
2022-08-01T08:24:05.604Z,100305.98
2022-08-01T08:27:02.433Z,100304.50
2022-08-01T08:29:59.463Z,100311.36
2022-08-01T08:32:56.447Z,100307.38
2022-08-01T08:35:54.303Z,100308.04
2022-08-01T08:38:51.342Z,100305.78
2022-08-01T08:41:49.650Z,100304.52
2022-08-01T08:44:47.491Z,100311.88
2022-08-01T08:47:43.378Z,100309.00
2022-08-01T08:50:39.394Z,100313.13
2022-08-01T08:53:37.289Z,100311.95
2022-08-01T08:56:35.958Z,100317.11
2022-08-01T08:59:27.890Z,100317.12
2022-08-01T09:02:20.350Z,100311.42
2022-08-01T09:05:16.090Z,100315.73
2022-08-01T09:08:15.469Z,100318.27
2022-08-01T09:11:16.020Z,100318.70
2022-08-01T09:14:25.212Z,100316.99
2022-08-01T09:17:22.464Z,100318.70
2022-08-01T09:20:18.388Z,100322.07
2022-08-01T09:23:14.349Z,100326.71
2022-08-01T09:26:11.384Z,100317.23
2022-08-01T09:29:08.375Z,100322.64
2022-08-01T09:32:06.639Z,100325.38
2022-08-01T09:34:56.406Z,100324.98
2022-08-01T09:37:53.460Z,100321.72
2022-08-01T09:40:50.493Z,100322.27
2022-08-01T09:43:47.358Z,100320.56
2022-08-01T09:46:47.212Z,100319.85
2022-08-01T09:49:51.601Z,100319.99
2022-08-01T09:52:50.369Z,100321.39
2022-08-01T09:55:48.355Z,100319.83
2022-08-01T09:58:45.431Z,100321.21
2022-08-01T10:01:27.287Z,100323.18
2022-08-01T10:04:28.956Z,100320.45
2022-08-01T10:07:17.146Z,100320.67
2022-08-01T10:10:17.296Z,100322.35
2022-08-01T10:13:06.029Z,100322.13
2022-08-01T10:15:54.554Z,100326.38
2022-08-01T10:18:55.331Z,100324.58
2022-08-01T10:21:58.325Z,100319.95
2022-08-01T10:24:56.389Z,100317.86
2022-08-01T10:27:53.352Z,100318.66
2022-08-01T10:30:44.734Z,100320.33
2022-08-01T10:33:50.536Z,100321.61
2022-08-01T10:36:50.375Z,100313.23
2022-08-01T10:39:41.324Z,100314.11
2022-08-01T10:42:36.253Z,100307.30
2022-08-01T10:45:33.246Z,100304.73
2022-08-01T10:48:29.683Z,100304.54
2022-08-01T10:51:52.656Z,100298.81
2022-08-01T10:54:52.184Z,100290.08
2022-08-01T10:57:52.912Z,100289.17
2022-08-01T11:00:50.292Z,100289.11
2022-08-01T11:03:57.566Z,100285.27
2022-08-01T11:06:57.293Z,100287.36
2022-08-01T11:09:54.435Z,100284.79
2022-08-01T11:12:50.215Z,100286.90
2022-08-01T11:15:50.259Z,100283.58
2022-08-01T11:18:47.314Z,100289.79
2022-08-01T11:21:58.027Z,100280.10
2022-08-01T11:24:58.284Z,100275.30
2022-08-01T11:27:55.443Z,100281.73
2022-08-01T11:30:54.338Z,100283.17
2022-08-01T11:33:51.750Z,100288.19
2022-08-01T11:37:03.737Z,100282.02
2022-08-01T11:40:01.285Z,100279.98
2022-08-01T11:42:58.264Z,100278.98
2022-08-01T11:46:03.206Z,100288.27
2022-08-01T11:48:45.135Z,100282.30
2022-08-01T11:51:26.619Z,100280.72
2022-08-01T11:54:35.120Z,100279.39
2022-08-01T11:57:34.143Z,100280.95
2022-08-01T12:00:19.525Z,100282.48
2022-08-01T12:03:15.175Z,100278.42
2022-08-01T12:06:33.683Z,100272.59
2022-08-01T12:09:31.333Z,100277.30
2022-08-01T12:12:30.036Z,100274.52
2022-08-01T12:15:28.342Z,100276.93
2022-08-01T12:18:07.406Z,100278.98
2022-08-01T12:20:56.933Z,100270.19
2022-08-01T12:23:42.414Z,100271.27
2022-08-01T12:26:31.828Z,100270.64
2022-08-01T12:29:49.267Z,100272.30
2022-08-01T12:32:41.385Z,100269.98
2022-08-01T12:35:31.308Z,100274.36
2022-08-01T12:38:34.145Z,100284.38
2022-08-01T12:41:31.190Z,100277.72
2022-08-01T12:44:17.795Z,100282.66
2022-08-01T12:47:15.280Z,100280.18
2022-08-01T12:50:13.126Z,100285.61
2022-08-01T12:53:10.324Z,100286.76
2022-08-01T12:56:13.523Z,100284.79
2022-08-01T12:59:10.184Z,100287.73
2022-08-01T13:01:59.473Z,100288.15
2022-08-01T13:04:53.792Z,100288.51
2022-08-01T13:07:43.502Z,100286.52
2022-08-01T13:10:45.139Z,100287.30
2022-08-01T13:13:48.788Z,100287.25
2022-08-01T13:16:55.467Z,100288.41
2022-08-01T13:20:03.307Z,100289.91
2022-08-01T13:22:47.679Z,100289.36
2022-08-01T13:25:35.236Z,100281.91
2022-08-01T13:28:22.356Z,100286.49
2022-08-01T13:31:10.305Z,100286.85
2022-08-01T13:34:12.108Z,100280.65
2022-08-01T13:37:04.293Z,100274.82
2022-08-01T13:40:00.414Z,100278.02
2022-08-01T13:42:42.080Z,100278.99
2022-08-01T13:45:26.638Z,100282.48
2022-08-01T13:48:19.222Z,100287.19
2022-08-01T13:51:20.371Z,100286.17
2022-08-01T13:54:01.266Z,100289.70
2022-08-01T13:56:40.339Z,100291.27
2022-08-01T13:59:22.096Z,100291.07
2022-08-01T14:02:07.296Z,100293.20
2022-08-01T14:05:04.254Z,100293.97
2022-08-01T14:08:05.223Z,100291.48
2022-08-01T14:11:14.105Z,100298.27
2022-08-01T14:14:10.319Z,100296.59
2022-08-01T14:17:07.223Z,100297.88
2022-08-01T14:20:05.917Z,100297.39
2022-08-01T14:23:08.643Z,100297.36
2022-08-01T14:26:21.295Z,100297.05
2022-08-01T14:29:08.230Z,100296.34
2022-08-01T14:32:04.500Z,100303.19
2022-08-01T14:35:03.207Z,100307.38
2022-08-01T14:38:07.254Z,100303.90
2022-08-01T14:41:01.229Z,100310.42
2022-08-01T14:44:03.252Z,100305.27
2022-08-01T14:46:58.630Z,100308.91
2022-08-01T14:49:45.533Z,100306.50
2022-08-01T14:52:28.395Z,100311.70
2022-08-01T14:55:18.024Z,100314.77
2022-08-01T14:58:01.242Z,100308.77
2022-08-01T15:00:49.216Z,100311.55
2022-08-01T15:03:47.323Z,100311.10
2022-08-01T15:06:43.177Z,100315.45
2022-08-01T15:09:39.206Z,100309.45
2022-08-01T15:12:49.819Z,100312.36
2022-08-01T15:15:48.423Z,100317.59
2022-08-01T15:18:45.264Z,100310.88
2022-08-01T15:21:41.216Z,100314.39
2022-08-01T15:24:31.163Z,100311.12
2022-08-01T15:27:27.332Z,100312.75
2022-08-01T15:30:27.468Z,100309.10
2022-08-01T15:33:25.235Z,100307.80
2022-08-01T15:36:25.952Z,100309.84
2022-08-01T15:39:03.042Z,100307.15
2022-08-01T15:41:59.386Z,100310.77
2022-08-01T15:44:56.220Z,100304.52
2022-08-01T15:47:53.159Z,100303.22
2022-08-01T15:50:50.290Z,100300.40
2022-08-01T15:53:47.878Z,100297.81
2022-08-01T15:56:45.485Z,100302.34
2022-08-01T15:59:43.343Z,100309.56
2022-08-01T16:02:40.113Z,100310.98
2022-08-01T16:05:43.202Z,100314.52
2022-08-01T16:08:41.063Z,100311.59
2022-08-01T16:11:34.153Z,100314.33
2022-08-01T16:14:43.159Z,100315.73
2022-08-01T16:17:44.475Z,100323.77
2022-08-01T16:20:45.499Z,100313.09
2022-08-01T16:23:43.056Z,100316.93
2022-08-01T16:26:33.057Z,100317.61
2022-08-01T16:29:36.171Z,100317.88
2022-08-01T16:32:34.303Z,100324.67
2022-08-01T16:48:54.062Z,100324.52
2022-08-01T16:51:51.275Z,100329.03
2022-08-01T16:54:46.139Z,100337.58
2022-08-01T16:57:42.935Z,100336.51
2022-08-01T17:00:43.261Z,100335.90
2022-08-01T17:03:51.728Z,100331.32
2022-08-01T17:06:54.670Z,100326.14
2022-08-01T17:09:52.043Z,100335.27
2022-08-01T17:12:49.066Z,100334.63
2022-08-01T17:15:47.984Z,100333.38
2022-08-01T17:18:44.105Z,100333.42
2022-08-01T17:21:41.517Z,100336.51
2022-08-01T17:24:39.102Z,100340.41
2022-08-01T17:27:36.165Z,100342.36
2022-08-01T17:30:33.489Z,100343.58
2022-08-01T17:33:46.114Z,100350.18
2022-08-01T17:36:43.212Z,100350.86
2022-08-01T17:39:40.555Z,100357.16
2022-08-01T17:42:37.234Z,100362.38
2022-08-01T17:45:38.103Z,100363.94
2022-08-01T17:48:53.494Z,100371.79
2022-08-01T17:51:51.279Z,100367.45
2022-08-01T17:54:52.211Z,100364.23
2022-08-01T17:57:49.189Z,100367.52
2022-08-01T18:01:06.843Z,100364.35
2022-08-01T18:04:07.705Z,100367.63
2022-08-01T18:10:49.114Z,100371.05
2022-08-01T18:14:03.165Z,100374.45
2022-08-01T18:16:51.155Z,100377.42
2022-08-01T18:19:50.934Z,100373.44
2022-08-01T18:23:02.055Z,100375.58
2022-08-01T18:26:27.569Z,100373.35
2022-08-01T18:29:47.184Z,100374.94
2022-08-01T18:32:49.204Z,100379.27
2022-08-01T18:36:03.895Z,100387.33
2022-08-01T18:39:02.056Z,100383.09
2022-08-01T18:42:01.556Z,100395.31
2022-08-01T18:45:00.085Z,100394.25
2022-08-01T18:47:51.962Z,100396.02
2022-08-01T18:50:41.928Z,100401.58
2022-08-01T18:53:39.918Z,100400.46
2022-08-01T18:56:39.277Z,100405.41
2022-08-01T18:59:33.049Z,100411.04
2022-08-01T19:02:29.975Z,100414.63
2022-08-01T19:05:26.983Z,100419.28
2022-08-01T19:08:15.849Z,100420.81
2022-08-01T19:11:12.155Z,100425.71
2022-08-01T19:14:09.004Z,100426.73
2022-08-01T19:17:06.221Z,100426.94
2022-08-01T19:20:03.000Z,100425.16
2022-08-01T19:23:00.005Z,100427.40
2022-08-01T19:25:56.930Z,100430.21
2022-08-01T19:28:49.456Z,100433.85
2022-08-01T19:31:49.045Z,100436.71
2022-08-01T19:34:26.718Z,100439.80
2022-08-01T19:37:24.063Z,100441.25
2022-08-01T19:40:26.733Z,100441.30
2022-08-01T19:43:49.168Z,100441.58
2022-08-01T19:46:52.073Z,100441.96
2022-08-01T19:52:45.928Z,100441.75
2022-08-01T19:55:43.063Z,100450.35
2022-08-01T19:58:40.966Z,100447.23
2022-08-01T20:01:38.315Z,100452.73
2022-08-01T20:04:35.449Z,100448.27
2022-08-01T20:07:37.169Z,100453.56
2022-08-01T20:10:38.474Z,100451.08
2022-08-01T20:13:39.005Z,100459.13
2022-08-01T20:16:51.565Z,100457.27
2022-08-01T20:19:47.012Z,100449.61
2022-08-01T20:22:32.944Z,100453.55
2022-08-01T20:25:50.712Z,100456.97
2022-08-01T20:32:30.678Z,100459.52
2022-08-01T20:35:51.454Z,100464.10
2022-08-01T20:39:04.293Z,100462.45
2022-08-01T20:42:04.685Z,100465.69
2022-08-01T20:45:07.737Z,100471.67
2022-08-01T20:51:52.459Z,100467.93
2022-08-01T20:55:08.184Z,100468.61
2022-08-01T21:01:56.350Z,100467.30
2022-08-01T21:08:38.421Z,100473.33
2022-08-01T21:11:49.569Z,100478.42
2022-08-01T21:15:06.316Z,100472.22
2022-08-01T21:18:03.803Z,100481.70
2022-08-01T21:21:00.939Z,100482.08
2022-08-01T21:24:04.111Z,100481.95
2022-08-01T21:27:01.137Z,100486.21
2022-08-01T21:29:58.103Z,100480.13
2022-08-01T21:32:56.245Z,100485.20
2022-08-01T21:36:02.595Z,100485.48
2022-08-01T21:39:03.545Z,100488.35
2022-08-01T21:42:04.132Z,100488.96
2022-08-01T21:45:05.191Z,100491.56
2022-08-01T21:48:15.023Z,100499.05
2022-08-01T21:51:20.759Z,100497.71
2022-08-01T21:54:17.993Z,100489.63
2022-08-01T21:57:40.163Z,100496.13
2022-08-01T22:00:36.954Z,100497.05
2022-08-01T22:03:34.001Z,100501.11
2022-08-01T22:06:29.897Z,100503.33
2022-08-01T22:09:27.025Z,100508.90
2022-08-01T22:12:41.433Z,100499.99
2022-08-01T22:15:45.045Z,100510.35
2022-08-01T22:18:45.979Z,100511.86
2022-08-01T22:21:45.817Z,100511.84
2022-08-01T22:24:43.874Z,100514.77
2022-08-01T22:28:08.536Z,100511.10
2022-08-01T22:30:59.836Z,100515.98
2022-08-01T22:33:56.907Z,100514.91
2022-08-01T22:36:53.961Z,100516.87
2022-08-01T22:40:42.016Z,100520.04
2022-08-01T22:51:42.840Z,100531.86
2022-08-01T22:56:07.369Z,100533.29
2022-08-01T22:59:04.036Z,100532.44
2022-08-01T23:02:01.170Z,100537.00
2022-08-01T23:04:58.896Z,100540.05
2022-08-01T23:08:05.276Z,100545.09
2022-08-01T23:11:32.518Z,100546.95
2022-08-01T23:14:38.347Z,100545.37
2022-08-01T23:17:36.084Z,100543.23
2022-08-01T23:20:32.929Z,100540.98
2022-08-01T23:23:30.734Z,100537.10
2022-08-01T23:26:39.540Z,100542.36
2022-08-01T23:29:51.329Z,100545.46
2022-08-01T23:32:50.184Z,100542.94
2022-08-01T23:35:50.117Z,100546.20
2022-08-01T23:38:48.934Z,100544.83
2022-08-01T23:41:57.366Z,100541.82
2022-08-01T23:44:56.608Z,100540.89
2022-08-01T23:48:04.026Z,100540.51
2022-08-01T23:51:00.916Z,100542.92
2022-08-01T23:53:58.909Z,100540.19
2022-08-01T23:56:56.030Z,100536.66
2022-08-01T23:59:54.322Z,100540.60
